Aviation Digital Data Service (ADDS)

Output produced by METARs form (1834 UTC 19 April 2019)
found at http://www.aviationweather.gov/metar/data/
 
METAR text: UTAA 191800Z 01004KT 9000 -RA FEW009 OVC015 11/10 Q1016 R88/290055 NOSIG
Conditions at: UTAA (ASHGABAT , TM) observed 1800 UTC 19 April 2019
Temperature: 11.0°C (52°F)
Dewpoint: 10.0°C (50°F) [RH = 94%]
Pressure (altimeter): 30.00 inches Hg (1016.0 mb)
Winds: from the N (10 degrees) at 5 MPH (4 knots; 2.1 m/s)
Visibility: 6 miles ( 9 km)
Ceiling: 1500 feet AGL
Clouds: few clouds at 900 feet AGL
overcast cloud deck at 1500 feet AGL
Weather: -RA  (light rain)

METAR text: UTAA 191700Z 35004KT 9999 OVC010 11/10 Q1016 R88/290055 NOSIG
Conditions at: UTAA (ASHGABAT , TM) observed 1700 UTC 19 April 2019
Temperature: 11.0°C (52°F)
Dewpoint: 10.0°C (50°F) [RH = 94%]
Pressure (altimeter): 30.00 inches Hg (1016.0 mb)
Winds: from the N (350 degrees) at 5 MPH (4 knots; 2.1 m/s)
Visibility: 6 or more miles (10+ km)
Ceiling: 1000 feet AGL
Clouds: overcast cloud deck at 1000 feet AGL
Weather: no significant weather observed at this time

METAR text: UTAA 191600Z 35002KT 9999 OVC005 10/10 Q1016 R88/290055 NOSIG
Conditions at: UTAA (ASHGABAT , TM) observed 1600 UTC 19 April 2019
Temperature: 10.0°C (50°F)
Dewpoint: 10.0°C (50°F) [RH = 100%]
Pressure (altimeter): 30.00 inches Hg (1016.0 mb)
Winds: from the N (350 degrees) at 2 MPH (2 knots; 1.0 m/s)
Visibility: 6 or more miles (10+ km)
Ceiling: 500 feet AGL
Clouds: overcast cloud deck at 500 feet AGL
Weather: no significant weather observed at this time

METAR text: UTAA 191500Z 35006KT 3800 -RA BR OVC003 10/10 Q1016 R88/290050 NOSIG
Conditions at: UTAA (ASHGABAT , TM) observed 1500 UTC 19 April 2019
Temperature: 10.0°C (50°F)
Dewpoint: 10.0°C (50°F) [RH = 100%]
Pressure (altimeter): 30.00 inches Hg (1016.0 mb)
Winds: from the N (350 degrees) at 7 MPH (6 knots; 3.1 m/s)
Visibility: 2.36 miles (3.80 km)
Ceiling: 300 feet AGL
Clouds: overcast cloud deck at 300 feet AGL
Weather: -RA BR  (light rain, mist)

METAR text: UTAA 191400Z 02004KT 9999 OVC011 SCT015CB 11/10 Q1015 R88/290050 NOSIG
Conditions at: UTAA (ASHGABAT , TM) observed 1400 UTC 19 April 2019
Temperature: 11.0°C (52°F)
Dewpoint: 10.0°C (50°F) [RH = 94%]
Pressure (altimeter): 29.97 inches Hg (1015.0 mb)
Winds: from the NNE (20 degrees) at 5 MPH (4 knots; 2.1 m/s)
Visibility: 6 or more miles (10+ km)
Ceiling: 1100 feet AGL
Clouds: overcast cloud deck at 1100 feet AGL
scattered clouds at 1500 feet AGL
Weather: no significant weather observed at this time

METAR text: UTAA 191300Z 36006KT 320V030 9999 OVC007 SCT015CB 11/10 Q1014 R88/290050 NOSIG
Conditions at: UTAA (ASHGABAT , TM) observed 1300 UTC 19 April 2019
Temperature: 11.0°C (52°F)
Dewpoint: 10.0°C (50°F) [RH = 94%]
Pressure (altimeter): 29.94 inches Hg (1014.0 mb)
Winds: from the N (360 degrees) at 7 MPH (6 knots; 3.1 m/s)
Visibility: 6 or more miles (10+ km)
Ceiling: 700 feet AGL
Clouds: overcast cloud deck at 700 feet AGL
scattered clouds at 1500 feet AGL
Weather: no significant weather observed at this time

METAR text: UTAA 191200Z 32008KT 290V350 4500 -SHRA OVC005 SCT015CB 11/10 Q1015 R88/290050 NOSIG
Conditions at: UTAA (ASHGABAT , TM) observed 1200 UTC 19 April 2019
Temperature: 11.0°C (52°F)
Dewpoint: 10.0°C (50°F) [RH = 94%]
Pressure (altimeter): 29.97 inches Hg (1015.0 mb)
Winds: from the NW (320 degrees) at 9 MPH (8 knots; 4.1 m/s)
Visibility: 2.80 miles (4.51 km)
Ceiling: 500 feet AGL
Clouds: overcast cloud deck at 500 feet AGL
scattered clouds at 1500 feet AGL
Weather: -SHRA  (light rain showers)

METAR text: UTAA 191100Z 31008KT 9999 -SHRA OVC007 SCT015CB 11/10 Q1014 R88/290055 TEMPO VRB28KT 2000 TSRA BKN006
Conditions at: UTAA (ASHGABAT , TM) observed 1100 UTC 19 April 2019
Temperature: 11.0°C (52°F)
Dewpoint: 10.0°C (50°F) [RH = 94%]
Pressure (altimeter): 29.94 inches Hg (1014.0 mb)
Winds: from the NW (310 degrees) at 9 MPH (8 knots; 4.1 m/s)
Visibility: 6 or more miles (10+ km)
Ceiling: 700 feet AGL
Clouds: overcast cloud deck at 700 feet AGL
scattered clouds at 1500 feet AGL
Weather: -SHRA  (light rain showers)

METAR text: UTAA 191000Z 35006KT 310V020 9999 -SHRA OVC008 SCT017CB 11/10 Q1014 R88/290055 TEMPO VRB28KT 2000 TSRA BKN006
Conditions at: UTAA (ASHGABAT , TM) observed 1000 UTC 19 April 2019
Temperature: 11.0°C (52°F)
Dewpoint: 10.0°C (50°F) [RH = 94%]
Pressure (altimeter): 29.94 inches Hg (1014.0 mb)
Winds: from the N (350 degrees) at 7 MPH (6 knots; 3.1 m/s)
Visibility: 6 or more miles (10+ km)
Ceiling: 800 feet AGL
Clouds: overcast cloud deck at 800 feet AGL
scattered clouds at 1700 feet AGL
Weather: -SHRA  (light rain showers)

METAR text: UTAA 190900Z 30010KT 280V340 9000 -SHRA OVC007 SCT017CB 11/10 Q1014 R88/290055 TEMPO VRB28KT 2000 TSRA BKN006
Conditions at: UTAA (ASHGABAT , TM) observed 0900 UTC 19 April 2019
Temperature: 11.0°C (52°F)
Dewpoint: 10.0°C (50°F) [RH = 94%]
Pressure (altimeter): 29.94 inches Hg (1014.0 mb)
Winds: from the WNW (300 degrees) at 12 MPH (10 knots; 5.1 m/s)
Visibility: 6 miles ( 9 km)
Ceiling: 700 feet AGL
Clouds: overcast cloud deck at 700 feet AGL
scattered clouds at 1700 feet AGL
Weather: -SHRA  (light rain showers)

METAR text: UTAA 190800Z 34004KT 290V020 2700 -SHRA SCT027CB OVC033 12/10 Q1014 R88/290055 TEMPO VRB28KT 2000 TSRA BKN006
Conditions at: UTAA (ASHGABAT , TM) observed 0800 UTC 19 April 2019
Temperature: 12.0°C (54°F)
Dewpoint: 10.0°C (50°F) [RH = 88%]
Pressure (altimeter): 29.94 inches Hg (1014.0 mb)
Winds: from the NNW (340 degrees) at 5 MPH (4 knots; 2.1 m/s)
Visibility: 1.68 miles (2.70 km)
Ceiling: 3300 feet AGL
Clouds: scattered clouds at 2700 feet AGL
overcast cloud deck at 3300 feet AGL
Weather: -SHRA  (light rain showers)

METAR text: UTAA 190700Z 01006KT 320V070 9999 FEW022CB OVC022 13/10 Q1014 R88/290055 NOSIG
Conditions at: UTAA (ASHGABAT , TM) observed 0700 UTC 19 April 2019
Temperature: 13.0°C (55°F)
Dewpoint: 10.0°C (50°F) [RH = 82%]
Pressure (altimeter): 29.94 inches Hg (1014.0 mb)
Winds: from the N (10 degrees) at 7 MPH (6 knots; 3.1 m/s)
Visibility: 6 or more miles (10+ km)
Ceiling: 2200 feet AGL
Clouds: few clouds at 2200 feet AGL
overcast cloud deck at 2200 feet AGL
Weather: no significant weather observed at this time

METAR text: UTAA 190600Z 29004KT 9000 -SHRA FEW019CB OVC019 12/10 Q1015 R88/290055 NOSIG
Conditions at: UTAA (ASHGABAT , TM) observed 0600 UTC 19 April 2019
Temperature: 12.0°C (54°F)
Dewpoint: 10.0°C (50°F) [RH = 88%]
Pressure (altimeter): 29.97 inches Hg (1015.0 mb)
Winds: from the WNW (290 degrees) at 5 MPH (4 knots; 2.1 m/s)
Visibility: 6 miles ( 9 km)
Ceiling: 1900 feet AGL
Clouds: few clouds at 1900 feet AGL
overcast cloud deck at 1900 feet AGL
Weather: -SHRA  (light rain showers)

METAR text: UTAA 190500Z 32006KT 300V360 9999 FEW033CB OVC033 13/09 Q1016 R88/70D NOSIG
Conditions at: UTAA (ASHGABAT , TM) observed 0500 UTC 19 April 2019
Temperature: 13.0°C (55°F)
Dewpoint: 9.0°C (48°F) [RH = 77%]
Pressure (altimeter): 30.00 inches Hg (1016.0 mb)
Winds: from the NW (320 degrees) at 7 MPH (6 knots; 3.1 m/s)
Visibility: 6 or more miles (10+ km)
Ceiling: 3300 feet AGL
Clouds: few clouds at 3300 feet AGL
overcast cloud deck at 3300 feet AGL
Weather: no significant weather observed at this time

METAR text: UTAA 190400Z 30006KT 9999 FEW031CB OVC031 14/09 Q1015 R88/70D NOSIG
Conditions at: UTAA (ASHGABAT , TM) observed 0400 UTC 19 April 2019
Temperature: 14.0°C (57°F)
Dewpoint: 9.0°C (48°F) [RH = 72%]
Pressure (altimeter): 29.97 inches Hg (1015.0 mb)
Winds: from the WNW (300 degrees) at 7 MPH (6 knots; 3.1 m/s)
Visibility: 6 or more miles (10+ km)
Ceiling: 3100 feet AGL
Clouds: few clouds at 3100 feet AGL
overcast cloud deck at 3100 feet AGL
Weather: no significant weather observed at this time

METAR text: UTAA 190300Z 30004KT 270V340 9999 FEW035CB OVC035 14/09 Q1015 R88/70D NOSIG
Conditions at: UTAA (ASHGABAT , TM) observed 0300 UTC 19 April 2019
Temperature: 14.0°C (57°F)
Dewpoint: 9.0°C (48°F) [RH = 72%]
Pressure (altimeter): 29.97 inches Hg (1015.0 mb)
Winds: from the WNW (300 degrees) at 5 MPH (4 knots; 2.1 m/s)
Visibility: 6 or more miles (10+ km)
Ceiling: 3500 feet AGL
Clouds: few clouds at 3500 feet AGL
overcast cloud deck at 3500 feet AGL
Weather: no significant weather observed at this time

METAR text: UTAA 190200Z 30008KT 9999 FEW035CB OVC035 14/10 Q1015 R88/70D NOSIG
Conditions at: UTAA (ASHGABAT , TM) observed 0200 UTC 19 April 2019
Temperature: 14.0°C (57°F)
Dewpoint: 10.0°C (50°F) [RH = 77%]
Pressure (altimeter): 29.97 inches Hg (1015.0 mb)
Winds: from the WNW (300 degrees) at 9 MPH (8 knots; 4.1 m/s)
Visibility: 6 or more miles (10+ km)
Ceiling: 3500 feet AGL
Clouds: few clouds at 3500 feet AGL
overcast cloud deck at 3500 feet AGL
Weather: no significant weather observed at this time

METAR text: UTAA 190100Z 29008KT 9999 FEW033CB OVC033 14/11 Q1014 R88/70D NOSIG
Conditions at: UTAA (ASHGABAT , TM) observed 0100 UTC 19 April 2019
Temperature: 14.0°C (57°F)
Dewpoint: 11.0°C (52°F) [RH = 82%]
Pressure (altimeter): 29.94 inches Hg (1014.0 mb)
Winds: from the WNW (290 degrees) at 9 MPH (8 knots; 4.1 m/s)
Visibility: 6 or more miles (10+ km)
Ceiling: 3300 feet AGL
Clouds: few clouds at 3300 feet AGL
overcast cloud deck at 3300 feet AGL
Weather: no significant weather observed at this time

METAR text: UTAA 190000Z 29006KT 9999 FEW045CB OVC045 15/12 Q1014 R30R/250060 R30L/290055 NOSIG
Conditions at: UTAA (ASHGABAT , TM) observed 0000 UTC 19 April 2019
Temperature: 15.0°C (59°F)
Dewpoint: 12.0°C (54°F) [RH = 82%]
Pressure (altimeter): 29.94 inches Hg (1014.0 mb)
Winds: from the WNW (290 degrees) at 7 MPH (6 knots; 3.1 m/s)
Visibility: 6 or more miles (10+ km)
Ceiling: 4500 feet AGL
Clouds: few clouds at 4500 feet AGL
overcast cloud deck at 4500 feet AGL
Weather: no significant weather observed at this time

METAR text: UTAA 182300Z 31006KT 9999 -SHRA FEW050CB BKN050 OVC100 15/13 Q1014 R12L/250060 R12R/290055 NOSIG
Conditions at: UTAA (ASHGABAT , TM) observed 2300 UTC 18 April 2019
Temperature: 15.0°C (59°F)
Dewpoint: 13.0°C (55°F) [RH = 88%]
Pressure (altimeter): 29.94 inches Hg (1014.0 mb)
Winds: from the NW (310 degrees) at 7 MPH (6 knots; 3.1 m/s)
Visibility: 6 or more miles (10+ km)
Ceiling: 5000 feet AGL
Clouds: few clouds at 5000 feet AGL
broken clouds at 5000 feet AGL
overcast cloud deck at 10000 feet AGL
Weather: -SHRA  (light rain showers)

METAR text: UTAA 182200Z 30008KT 9999 -SHRA FEW050CB BKN050 OVC100 16/13 Q1014 R88/70D NOSIG
Conditions at: UTAA (ASHGABAT , TM) observed 2200 UTC 18 April 2019
Temperature: 16.0°C (61°F)
Dewpoint: 13.0°C (55°F) [RH = 82%]
Pressure (altimeter): 29.94 inches Hg (1014.0 mb)
Winds: from the WNW (300 degrees) at 9 MPH (8 knots; 4.1 m/s)
Visibility: 6 or more miles (10+ km)
Ceiling: 5000 feet AGL
Clouds: few clouds at 5000 feet AGL
broken clouds at 5000 feet AGL
overcast cloud deck at 10000 feet AGL
Weather: -SHRA  (light rain showers)

METAR text: UTAA 182100Z 28006KT 9999 -SHRA FEW052CB BKN052 OVC100 17/13 Q1014 R88/70D NOSIG
Conditions at: UTAA (ASHGABAT , TM) observed 2100 UTC 18 April 2019
Temperature: 17.0°C (63°F)
Dewpoint: 13.0°C (55°F) [RH = 77%]
Pressure (altimeter): 29.94 inches Hg (1014.0 mb)
Winds: from the W (280 degrees) at 7 MPH (6 knots; 3.1 m/s)
Visibility: 6 or more miles (10+ km)
Ceiling: 5200 feet AGL
Clouds: few clouds at 5200 feet AGL
broken clouds at 5200 feet AGL
overcast cloud deck at 10000 feet AGL
Weather: -SHRA  (light rain showers)

METAR text: UTAA 182000Z 29006KT 9999 FEW055CB BKN055 OVC100 18/13 Q1015 R88/70D NOSIG
Conditions at: UTAA (ASHGABAT , TM) observed 2000 UTC 18 April 2019
Temperature: 18.0°C (64°F)
Dewpoint: 13.0°C (55°F) [RH = 73%]
Pressure (altimeter): 29.97 inches Hg (1015.0 mb)
Winds: from the WNW (290 degrees) at 7 MPH (6 knots; 3.1 m/s)
Visibility: 6 or more miles (10+ km)
Ceiling: 5500 feet AGL
Clouds: few clouds at 5500 feet AGL
broken clouds at 5500 feet AGL
overcast cloud deck at 10000 feet AGL
Weather: no significant weather observed at this time

METAR text: UTAA 181900Z 28008KT 9999 FEW054CB BKN054 OVC100 18/13 Q1015 R88/70D NOSIG
Conditions at: UTAA (ASHGABAT , TM) observed 1900 UTC 18 April 2019
Temperature: 18.0°C (64°F)
Dewpoint: 13.0°C (55°F) [RH = 73%]
Pressure (altimeter): 29.97 inches Hg (1015.0 mb)
Winds: from the W (280 degrees) at 9 MPH (8 knots; 4.1 m/s)
Visibility: 6 or more miles (10+ km)
Ceiling: 5400 feet AGL
Clouds: few clouds at 5400 feet AGL
broken clouds at 5400 feet AGL
overcast cloud deck at 10000 feet AGL
Weather: no significant weather observed at this time

METAR text: UTAA 181800Z 26006KT 9999 FEW051CB BKN051 OVC100 19/13 Q1015 R88/70D NOSIG
Conditions at: UTAA (ASHGABAT , TM) observed 1800 UTC 18 April 2019
Temperature: 19.0°C (66°F)
Dewpoint: 13.0°C (55°F) [RH = 68%]
Pressure (altimeter): 29.97 inches Hg (1015.0 mb)
Winds: from the W (260 degrees) at 7 MPH (6 knots; 3.1 m/s)
Visibility: 6 or more miles (10+ km)
Ceiling: 5100 feet AGL
Clouds: few clouds at 5100 feet AGL
broken clouds at 5100 feet AGL
overcast cloud deck at 10000 feet AGL
Weather: no significant weather observed at this time

METAR text: UTAA 181700Z 27006KT 9999 FEW050CB BKN050 OVC100 19/13 Q1014 R88/70D NOSIG
Conditions at: UTAA (ASHGABAT , TM) observed 1700 UTC 18 April 2019
Temperature: 19.0°C (66°F)
Dewpoint: 13.0°C (55°F) [RH = 68%]
Pressure (altimeter): 29.94 inches Hg (1014.0 mb)
Winds: from the W (270 degrees) at 7 MPH (6 knots; 3.1 m/s)
Visibility: 6 or more miles (10+ km)
Ceiling: 5000 feet AGL
Clouds: few clouds at 5000 feet AGL
broken clouds at 5000 feet AGL
overcast cloud deck at 10000 feet AGL
Weather: no significant weather observed at this time

METAR text: UTAA 181600Z 29006KT 9999 FEW054CB BKN054 OVC100 19/13 Q1013 R88/70D NOSIG
Conditions at: UTAA (ASHGABAT , TM) observed 1600 UTC 18 April 2019
Temperature: 19.0°C (66°F)
Dewpoint: 13.0°C (55°F) [RH = 68%]
Pressure (altimeter): 29.91 inches Hg (1013.0 mb)
Winds: from the WNW (290 degrees) at 7 MPH (6 knots; 3.1 m/s)
Visibility: 6 or more miles (10+ km)
Ceiling: 5400 feet AGL
Clouds: few clouds at 5400 feet AGL
broken clouds at 5400 feet AGL
overcast cloud deck at 10000 feet AGL
Weather: no significant weather observed at this time

METAR text: UTAA 181500Z 29006KT 270V330 9999 -SHRA FEW052CB BKN052 OVC100 20/13 Q1012 R88/70D NOSIG
Conditions at: UTAA (ASHGABAT , TM) observed 1500 UTC 18 April 2019
Temperature: 20.0°C (68°F)
Dewpoint: 13.0°C (55°F) [RH = 64%]
Pressure (altimeter): 29.88 inches Hg (1012.0 mb)
Winds: from the WNW (290 degrees) at 7 MPH (6 knots; 3.1 m/s)
Visibility: 6 or more miles (10+ km)
Ceiling: 5200 feet AGL
Clouds: few clouds at 5200 feet AGL
broken clouds at 5200 feet AGL
overcast cloud deck at 10000 feet AGL
Weather: -SHRA  (light rain showers)

METAR text: UTAA 181400Z 31006KT 9999 FEW052CB BKN052 OVC100 21/13 Q1012 R88/70D NOSIG
Conditions at: UTAA (ASHGABAT , TM) observed 1400 UTC 18 April 2019
Temperature: 21.0°C (70°F)
Dewpoint: 13.0°C (55°F) [RH = 60%]
Pressure (altimeter): 29.88 inches Hg (1012.0 mb)
Winds: from the NW (310 degrees) at 7 MPH (6 knots; 3.1 m/s)
Visibility: 6 or more miles (10+ km)
Ceiling: 5200 feet AGL
Clouds: few clouds at 5200 feet AGL
broken clouds at 5200 feet AGL
overcast cloud deck at 10000 feet AGL
Weather: no significant weather observed at this time

METAR text: UTAA 181300Z 30008KT 9999 FEW050CB BKN050 OVC100 22/12 Q1011 R88/70D NOSIG
Conditions at: UTAA (ASHGABAT , TM) observed 1300 UTC 18 April 2019
Temperature: 22.0°C (72°F)
Dewpoint: 12.0°C (54°F) [RH = 53%]
Pressure (altimeter): 29.85 inches Hg (1011.0 mb)
Winds: from the WNW (300 degrees) at 9 MPH (8 knots; 4.1 m/s)
Visibility: 6 or more miles (10+ km)
Ceiling: 5000 feet AGL
Clouds: few clouds at 5000 feet AGL
broken clouds at 5000 feet AGL
overcast cloud deck at 10000 feet AGL
Weather: no significant weather observed at this time

METAR text: UTAA 181200Z 31008KT 9999 FEW049CB BKN049 OVC200 22/12 Q1011 R88/CLRD70 NOSIG
Conditions at: UTAA (ASHGABAT , TM) observed 1200 UTC 18 April 2019
Temperature: 22.0°C (72°F)
Dewpoint: 12.0°C (54°F) [RH = 53%]
Pressure (altimeter): 29.85 inches Hg (1011.0 mb)
Winds: from the NW (310 degrees) at 9 MPH (8 knots; 4.1 m/s)
Visibility: 6 or more miles (10+ km)
Ceiling: 4900 feet AGL
Clouds: few clouds at 4900 feet AGL
broken clouds at 4900 feet AGL
overcast cloud deck at 20000 feet AGL
Weather: no significant weather observed at this time

METAR text: UTAA 181100Z 32010KT 9999 BKN033 OVC200 23/13 Q1010 R88/70D NOSIG
Conditions at: UTAA (ASHGABAT , TM) observed 1100 UTC 18 April 2019
Temperature: 23.0°C (73°F)
Dewpoint: 13.0°C (55°F) [RH = 53%]
Pressure (altimeter): 29.82 inches Hg (1010.0 mb)
Winds: from the NW (320 degrees) at 12 MPH (10 knots; 5.1 m/s)
Visibility: 6 or more miles (10+ km)
Ceiling: 3300 feet AGL
Clouds: broken clouds at 3300 feet AGL
overcast cloud deck at 20000 feet AGL
Weather: no significant weather observed at this time

METAR text: UTAA 181000Z 33012KT 9999 BKN049 OVC200 24/13 Q1010 R88/70D NOSIG
Conditions at: UTAA (ASHGABAT , TM) observed 1000 UTC 18 April 2019
Temperature: 24.0°C (75°F)
Dewpoint: 13.0°C (55°F) [RH = 50%]
Pressure (altimeter): 29.82 inches Hg (1010.0 mb)
Winds: from the NNW (330 degrees) at 14 MPH (12 knots; 6.2 m/s)
Visibility: 6 or more miles (10+ km)
Ceiling: 4900 feet AGL
Clouds: broken clouds at 4900 feet AGL
overcast cloud deck at 20000 feet AGL
Weather: no significant weather observed at this time

METAR text: UTAA 180900Z 32008KT 290V360 9999 FEW033 OVC200 24/13 Q1009 R88/70D NOSIG
Conditions at: UTAA (ASHGABAT , TM) observed 0900 UTC 18 April 2019
Temperature: 24.0°C (75°F)
Dewpoint: 13.0°C (55°F) [RH = 50%]
Pressure (altimeter): 29.79 inches Hg (1009.0 mb)
Winds: from the NW (320 degrees) at 9 MPH (8 knots; 4.1 m/s)
Visibility: 6 or more miles (10+ km)
Ceiling: 20000 feet AGL
Clouds: few clouds at 3300 feet AGL
overcast cloud deck at 20000 feet AGL
Weather: no significant weather observed at this time

METAR text: UTAA 180800Z 33006KT 270V350 9999 FEW033 OVC200 23/14 Q1009 R88/70D NOSIG
Conditions at: UTAA (ASHGABAT , TM) observed 0800 UTC 18 April 2019
Temperature: 23.0°C (73°F)
Dewpoint: 14.0°C (57°F) [RH = 57%]
Pressure (altimeter): 29.79 inches Hg (1009.0 mb)
Winds: from the NNW (330 degrees) at 7 MPH (6 knots; 3.1 m/s)
Visibility: 6 or more miles (10+ km)
Ceiling: 20000 feet AGL
Clouds: few clouds at 3300 feet AGL
overcast cloud deck at 20000 feet AGL
Weather: no significant weather observed at this time

METAR text: UTAA 180700Z 34006KT 310V020 9999 FEW033 OVC200 23/15 Q1009 R88/70D NOSIG
Conditions at: UTAA (ASHGABAT , TM) observed 0700 UTC 18 April 2019
Temperature: 23.0°C (73°F)
Dewpoint: 15.0°C (59°F) [RH = 61%]
Pressure (altimeter): 29.79 inches Hg (1009.0 mb)
Winds: from the NNW (340 degrees) at 7 MPH (6 knots; 3.1 m/s)
Visibility: 6 or more miles (10+ km)
Ceiling: 20000 feet AGL
Clouds: few clouds at 3300 feet AGL
overcast cloud deck at 20000 feet AGL
Weather: no significant weather observed at this time

Forecast for: AMD
Text: TAF AMD UTAA 191816Z 1918/2018 02018KT 5000 -RA OVC008 SCT030CB 550300
Forecast period: 1800 UTC 19 April 2019 to 1800 UTC 20 April 2019
Forecast type: FROM: standard forecast or significant change
Winds: from the NNE (20 degrees) at 21 MPH (18 knots; 9.3 m/s)
Visibility: 3 miles (5 km)
Ceiling: 800 feet AGL
Clouds: overcast cloud deck at 800 feet AGL
scattered clouds at 3000 feet AGL
Weather: -RA  (light rain)
Text: TEMPO 1918/1924 VRB28KT 1200 TSSHRA VV004 570003
Forecast period: 1800 UTC 19 April 2019 to 0000 UTC 20 April 2019
Forecast type: TEMPORARY: The following changes expected for less than half the time period
Winds: variable direction winds at 32 MPH (28 knots; 14.4 m/s)
Visibility: 0.75 miles (1.21 km)
Ceiling: indefinite ceiling with vertical visibility of 400 feet AGL
Clouds: obscured sky
Weather: SHRA TS  (rain showers, thunderstorm)
Text: TEMPO 2000/2004 1000 DZ BR OVC002
Forecast period: 0000 to 0400 UTC 20 April 2019
Forecast type: TEMPORARY: The following changes expected for less than half the time period
Visibility: 0.62 miles (1.00 km)
Ceiling: 200 feet AGL
Clouds: overcast cloud deck at 200 feet AGL
Weather: DZ BR  (moderate drizzle, mist)